sensor_id;sensor_type;location;lat;lon;timestamp;pressure;altitude;pressure_sealevel;temperature;humidity
72118;BME280;59992;47.490;8.736;2023-06-24T00:01:55;97402.91;;;14.08;85.70
72118;BME280;59992;47.490;8.736;2023-06-24T00:04:45;97403.32;;;14.05;86.93
72118;BME280;59992;47.490;8.736;2023-06-24T00:07:35;97400.48;;;14.03;85.90
72118;BME280;59992;47.490;8.736;2023-06-24T00:10:32;97403.34;;;14.00;86.98
72118;BME280;59992;47.490;8.736;2023-06-24T00:13:22;97408.85;;;13.97;87.43
72118;BME280;59992;47.490;8.736;2023-06-24T00:16:12;97415.60;;;13.95;85.55
72118;BME280;59992;47.490;8.736;2023-06-24T00:19:02;97419.90;;;13.92;87.21
72118;BME280;59992;47.490;8.736;2023-06-24T00:21:53;97417.64;;;13.93;87.96
72118;BME280;59992;47.490;8.736;2023-06-24T00:24:43;97416.08;;;13.96;86.03
72118;BME280;59992;47.490;8.736;2023-06-24T00:27:33;97419.38;;;13.98;87.26
72118;BME280;59992;47.490;8.736;2023-06-24T00:30:25;97414.38;;;14.00;85.70
72118;BME280;59992;47.490;8.736;2023-06-24T00:33:16;97417.45;;;14.02;86.03
72118;BME280;59992;47.490;8.736;2023-06-24T00:36:08;97422.11;;;14.04;86.80
72118;BME280;59992;47.490;8.736;2023-06-24T00:39:00;97421.84;;;14.06;87.41
72118;BME280;59992;47.490;8.736;2023-06-24T00:41:52;97420.80;;;14.07;86.50
72118;BME280;59992;47.490;8.736;2023-06-24T00:44:43;97419.12;;;14.07;85.75
72118;BME280;59992;47.490;8.736;2023-06-24T00:47:33;97421.33;;;14.07;87.04
72118;BME280;59992;47.490;8.736;2023-06-24T00:50:24;97416.67;;;14.06;87.32
72118;BME280;59992;47.490;8.736;2023-06-24T00:53:14;97414.55;;;14.07;88.55
72118;BME280;59992;47.490;8.736;2023-06-24T00:56:05;97416.89;;;14.05;85.84
72118;BME280;59992;47.490;8.736;2023-06-24T00:58:55;97420.14;;;14.04;85.36
72118;BME280;59992;47.490;8.736;2023-06-24T01:01:47;97422.41;;;14.03;88.31
72118;BME280;59992;47.490;8.736;2023-06-24T01:04:38;97421.23;;;14.00;86.40
72118;BME280;59992;47.490;8.736;2023-06-24T01:07:29;97418.10;;;13.99;88.03
72118;BME280;59992;47.490;8.736;2023-06-24T01:10:21;97417.31;;;13.97;86.78
72118;BME280;59992;47.490;8.736;2023-06-24T01:13:12;97419.80;;;13.95;85.86
72118;BME280;59992;47.490;8.736;2023-06-24T01:16:09;97422.60;;;13.94;89.15
72118;BME280;59992;47.490;8.736;2023-06-24T01:19:04;97423.20;;;13.93;87.42
72118;BME280;59992;47.490;8.736;2023-06-24T01:22:07;97418.96;;;13.90;87.23
72118;BME280;59992;47.490;8.736;2023-06-24T01:25:15;97420.89;;;13.86;88.39
72118;BME280;59992;47.490;8.736;2023-06-24T01:28:23;97413.82;;;13.76;88.54
72118;BME280;59992;47.490;8.736;2023-06-24T01:34:42;97417.83;;;13.74;87.90
72118;BME280;59992;47.490;8.736;2023-06-24T01:37:37;97421.44;;;13.71;88.74
72118;BME280;59992;47.490;8.736;2023-06-24T01:40:34;97419.64;;;13.68;87.37
72118;BME280;59992;47.490;8.736;2023-06-24T01:43:29;97418.85;;;13.66;88.35
72118;BME280;59992;47.490;8.736;2023-06-24T01:46:24;97422.00;;;13.63;88.57
72118;BME280;59992;47.490;8.736;2023-06-24T01:49:16;97421.88;;;13.59;90.32
72118;BME280;59992;47.490;8.736;2023-06-24T01:52:08;97421.59;;;13.55;90.41
72118;BME280;59992;47.490;8.736;2023-06-24T01:55:00;97416.27;;;13.50;91.41
72118;BME280;59992;47.490;8.736;2023-06-24T01:57:51;97417.14;;;13.48;92.35
72118;BME280;59992;47.490;8.736;2023-06-24T02:00:43;97414.73;;;13.49;93.14
72118;BME280;59992;47.490;8.736;2023-06-24T02:03:34;97406.23;;;13.50;90.87
72118;BME280;59992;47.490;8.736;2023-06-24T02:06:26;97408.20;;;13.46;89.09
72118;BME280;59992;47.490;8.736;2023-06-24T02:09:19;97408.76;;;13.42;89.38
72118;BME280;59992;47.490;8.736;2023-06-24T02:12:10;97412.89;;;13.39;89.89
72118;BME280;59992;47.490;8.736;2023-06-24T02:15:02;97409.02;;;13.35;91.00
72118;BME280;59992;47.490;8.736;2023-06-24T02:17:56;97412.46;;;13.32;91.32
72118;BME280;59992;47.490;8.736;2023-06-24T02:20:47;97409.67;;;13.27;91.94
72118;BME280;59992;47.490;8.736;2023-06-24T02:23:38;97402.60;;;13.20;93.18
72118;BME280;59992;47.490;8.736;2023-06-24T02:26:29;97409.46;;;13.24;91.03
72118;BME280;59992;47.490;8.736;2023-06-24T02:29:19;97403.64;;;13.22;91.08
72118;BME280;59992;47.490;8.736;2023-06-24T02:32:11;97406.11;;;13.19;91.17
72118;BME280;59992;47.490;8.736;2023-06-24T02:35:02;97400.19;;;13.16;90.56
72118;BME280;59992;47.490;8.736;2023-06-24T02:37:53;97407.45;;;13.13;92.11
72118;BME280;59992;47.490;8.736;2023-06-24T02:40:44;97409.66;;;13.09;92.21
72118;BME280;59992;47.490;8.736;2023-06-24T02:43:35;97412.92;;;13.04;93.48
72118;BME280;59992;47.490;8.736;2023-06-24T02:46:26;97418.09;;;13.01;93.01
72118;BME280;59992;47.490;8.736;2023-06-24T02:49:19;97414.27;;;13.00;93.27
72118;BME280;59992;47.490;8.736;2023-06-24T02:52:10;97415.54;;;12.98;94.14
72118;BME280;59992;47.490;8.736;2023-06-24T02:55:01;97411.64;;;12.97;92.77
72118;BME280;59992;47.490;8.736;2023-06-24T02:57:52;97411.38;;;12.96;92.06
72118;BME280;59992;47.490;8.736;2023-06-24T03:00:43;97407.14;;;12.93;91.18
72118;BME280;59992;47.490;8.736;2023-06-24T03:03:33;97414.80;;;12.91;93.25
72118;BME280;59992;47.490;8.736;2023-06-24T03:06:24;97414.22;;;12.88;93.31
72118;BME280;59992;47.490;8.736;2023-06-24T03:09:16;97412.51;;;12.86;93.50
72118;BME280;59992;47.490;8.736;2023-06-24T03:12:07;97413.90;;;12.83;93.93
72118;BME280;59992;47.490;8.736;2023-06-24T03:14:58;97415.76;;;12.81;92.61
72118;BME280;59992;47.490;8.736;2023-06-24T03:17:49;97419.04;;;12.78;93.09
72118;BME280;59992;47.490;8.736;2023-06-24T03:20:40;97423.55;;;12.75;93.38
72118;BME280;59992;47.490;8.736;2023-06-24T03:23:30;97429.38;;;12.73;93.89
72118;BME280;59992;47.490;8.736;2023-06-24T03:26:20;97433.61;;;12.72;94.44
72118;BME280;59992;47.490;8.736;2023-06-24T03:29:11;97435.41;;;12.71;94.27
72118;BME280;59992;47.490;8.736;2023-06-24T03:32:01;97434.84;;;12.68;94.18
72118;BME280;59992;47.490;8.736;2023-06-24T03:34:52;97434.41;;;12.66;94.02
72118;BME280;59992;47.490;8.736;2023-06-24T03:37:42;97431.58;;;12.65;94.09
72118;BME280;59992;47.490;8.736;2023-06-24T03:40:33;97437.94;;;12.67;93.36
72118;BME280;59992;47.490;8.736;2023-06-24T03:43:22;97442.07;;;12.69;93.25
72118;BME280;59992;47.490;8.736;2023-06-24T03:46:12;97440.85;;;12.68;92.23
72118;BME280;59992;47.490;8.736;2023-06-24T03:49:03;97441.38;;;12.68;93.10
72118;BME280;59992;47.490;8.736;2023-06-24T03:51:53;97440.58;;;12.70;93.70
72118;BME280;59992;47.490;8.736;2023-06-24T03:54:43;97443.07;;;12.74;92.73
72118;BME280;59992;47.490;8.736;2023-06-24T03:57:33;97444.43;;;12.78;92.23
72118;BME280;59992;47.490;8.736;2023-06-24T04:00:23;97438.02;;;12.80;93.15
72118;BME280;59992;47.490;8.736;2023-06-24T04:03:14;97434.61;;;12.85;92.90
72118;BME280;59992;47.490;8.736;2023-06-24T04:06:06;97432.23;;;12.93;92.27
72118;BME280;59992;47.490;8.736;2023-06-24T04:08:56;97435.94;;;13.01;91.70
72118;BME280;59992;47.490;8.736;2023-06-24T04:11:47;97441.06;;;13.17;92.39
72118;BME280;59992;47.490;8.736;2023-06-24T04:14:37;97444.33;;;13.54;90.25
72118;BME280;59992;47.490;8.736;2023-06-24T04:17:27;97444.66;;;13.86;88.02
72118;BME280;59992;47.490;8.736;2023-06-24T04:20:17;97446.84;;;14.22;87.07
72118;BME280;59992;47.490;8.736;2023-06-24T04:23:07;97450.13;;;14.88;85.37
72118;BME280;59992;47.490;8.736;2023-06-24T04:26:00;97453.46;;;15.68;82.80
72118;BME280;59992;47.490;8.736;2023-06-24T04:28:50;97455.21;;;16.46;80.19
72118;BME280;59992;47.490;8.736;2023-06-24T04:31:40;97459.13;;;17.18;76.27
72118;BME280;59992;47.490;8.736;2023-06-24T04:34:31;97455.16;;;17.89;76.83
72118;BME280;59992;47.490;8.736;2023-06-24T04:37:21;97460.52;;;18.59;72.23
72118;BME280;59992;47.490;8.736;2023-06-24T04:40:12;97466.74;;;19.18;69.45
72118;BME280;59992;47.490;8.736;2023-06-24T04:43:05;97474.46;;;19.76;70.05
72118;BME280;59992;47.490;8.736;2023-06-24T04:45:55;97475.54;;;20.29;65.04
72118;BME280;59992;47.490;8.736;2023-06-24T04:48:45;97481.19;;;20.74;60.71
72118;BME280;59992;47.490;8.736;2023-06-24T04:51:39;97481.59;;;21.25;62.75
72118;BME280;59992;47.490;8.736;2023-06-24T04:54:34;97484.77;;;21.89;59.96
72118;BME280;59992;47.490;8.736;2023-06-24T04:57:28;97481.48;;;22.35;57.72
72118;BME280;59992;47.490;8.736;2023-06-24T05:00:19;97483.70;;;22.81;55.86
72118;BME280;59992;47.490;8.736;2023-06-24T05:03:11;97486.55;;;23.32;57.11
72118;BME280;59992;47.490;8.736;2023-06-24T05:06:02;97489.76;;;23.96;57.88
72118;BME280;59992;47.490;8.736;2023-06-24T05:08:52;97486.25;;;24.64;53.45
72118;BME280;59992;47.490;8.736;2023-06-24T05:11:43;97486.95;;;25.28;48.84
72118;BME280;59992;47.490;8.736;2023-06-24T05:14:33;97486.65;;;25.63;47.90
72118;BME280;59992;47.490;8.736;2023-06-24T05:17:23;97490.15;;;26.04;47.41
72118;BME280;59992;47.490;8.736;2023-06-24T05:20:14;97490.68;;;26.36;45.21
72118;BME280;59992;47.490;8.736;2023-06-24T05:23:06;97497.12;;;26.65;45.43
72118;BME280;59992;47.490;8.736;2023-06-24T05:25:57;97498.27;;;26.72;42.60
72118;BME280;59992;47.490;8.736;2023-06-24T05:28:47;97501.61;;;26.75;42.74
72118;BME280;59992;47.490;8.736;2023-06-24T05:31:37;97500.67;;;26.88;43.54
72118;BME280;59992;47.490;8.736;2023-06-24T05:34:28;97503.73;;;27.32;45.38
72118;BME280;59992;47.490;8.736;2023-06-24T05:37:18;97495.15;;;27.68;42.20
72118;BME280;59992;47.490;8.736;2023-06-24T05:40:10;97490.16;;;27.81;39.96
72118;BME280;59992;47.490;8.736;2023-06-24T05:43:01;97493.77;;;27.87;40.26
72118;BME280;59992;47.490;8.736;2023-06-24T05:45:52;97497.15;;;28.02;40.19
72118;BME280;59992;47.490;8.736;2023-06-24T05:48:42;97492.26;;;27.84;39.49
72118;BME280;59992;47.490;8.736;2023-06-24T05:51:32;97494.77;;;27.86;39.63
72118;BME280;59992;47.490;8.736;2023-06-24T05:54:22;97492.73;;;27.77;39.89
72118;BME280;59992;47.490;8.736;2023-06-24T05:57:13;97495.29;;;28.08;40.37
72118;BME280;59992;47.490;8.736;2023-06-24T06:00:04;97495.90;;;28.19;38.84
72118;BME280;59992;47.490;8.736;2023-06-24T06:02:54;97492.18;;;28.29;38.90
72118;BME280;59992;47.490;8.736;2023-06-24T06:05:44;97493.13;;;28.55;39.49
72118;BME280;59992;47.490;8.736;2023-06-24T06:08:35;97491.79;;;28.99;40.51
72118;BME280;59992;47.490;8.736;2023-06-24T06:11:25;97489.14;;;29.46;39.26
72118;BME280;59992;47.490;8.736;2023-06-24T06:14:15;97489.39;;;29.83;37.27
72118;BME280;59992;47.490;8.736;2023-06-24T06:17:06;97490.17;;;30.13;36.07
72118;BME280;59992;47.490;8.736;2023-06-24T06:19:57;97485.14;;;30.29;36.96
72118;BME280;59992;47.490;8.736;2023-06-24T06:22:47;97477.58;;;30.55;36.16
72118;BME280;59992;47.490;8.736;2023-06-24T06:25:37;97488.21;;;30.84;34.78
72118;BME280;59992;47.490;8.736;2023-06-24T06:28:27;97475.44;;;31.12;34.35
72118;BME280;59992;47.490;8.736;2023-06-24T06:31:18;97482.79;;;31.35;33.43
72118;BME280;59992;47.490;8.736;2023-06-24T06:34:08;97488.94;;;31.42;33.53
72118;BME280;59992;47.490;8.736;2023-06-24T06:36:58;97487.60;;;31.36;32.45
72118;BME280;59992;47.490;8.736;2023-06-24T06:39:49;97486.36;;;31.19;32.01
72118;BME280;59992;47.490;8.736;2023-06-24T06:42:39;97484.58;;;31.07;31.78
72118;BME280;59992;47.490;8.736;2023-06-24T06:45:30;97486.70;;;30.86;32.42
72118;BME280;59992;47.490;8.736;2023-06-24T06:48:20;97486.85;;;30.48;32.18
72118;BME280;59992;47.490;8.736;2023-06-24T06:51:10;97486.14;;;30.20;32.77
72118;BME280;59992;47.490;8.736;2023-06-24T06:54:00;97482.30;;;30.00;32.52
72118;BME280;59992;47.490;8.736;2023-06-24T06:56:51;97479.83;;;29.93;32.72
72118;BME280;59992;47.490;8.736;2023-06-24T06:59:42;97485.60;;;29.71;32.49
72118;BME280;59992;47.490;8.736;2023-06-24T07:02:33;97483.04;;;29.48;33.03
72118;BME280;59992;47.490;8.736;2023-06-24T07:05:23;97487.42;;;29.46;33.28
72118;BME280;59992;47.490;8.736;2023-06-24T07:08:13;97484.84;;;29.40;33.36
72118;BME280;59992;47.490;8.736;2023-06-24T07:11:03;97483.09;;;29.12;33.12
72118;BME280;59992;47.490;8.736;2023-06-24T07:13:54;97485.37;;;28.92;33.68
72118;BME280;59992;47.490;8.736;2023-06-24T07:16:44;97478.78;;;28.89;34.52
72118;BME280;59992;47.490;8.736;2023-06-24T07:19:34;97474.92;;;29.02;33.99
72118;BME280;59992;47.490;8.736;2023-06-24T07:22:24;97473.70;;;29.14;34.33
72118;BME280;59992;47.490;8.736;2023-06-24T07:25:15;97472.27;;;29.20;34.05
72118;BME280;59992;47.490;8.736;2023-06-24T07:28:05;97469.02;;;29.27;33.71
72118;BME280;59992;47.490;8.736;2023-06-24T07:30:55;97475.27;;;29.17;33.50
72118;BME280;59992;47.490;8.736;2023-06-24T07:33:46;97469.27;;;29.12;33.84
72118;BME280;59992;47.490;8.736;2023-06-24T07:36:36;97457.13;;;29.23;33.94
72118;BME280;59992;47.490;8.736;2023-06-24T07:39:26;97459.52;;;28.91;34.16
72118;BME280;59992;47.490;8.736;2023-06-24T07:42:18;97461.48;;;28.57;35.44
72118;BME280;59992;47.490;8.736;2023-06-24T07:45:10;97459.21;;;28.71;35.57
72118;BME280;59992;47.490;8.736;2023-06-24T07:47:59;97454.16;;;28.91;35.06
72118;BME280;59992;47.490;8.736;2023-06-24T07:50:53;97449.36;;;29.04;34.79
72118;BME280;59992;47.490;8.736;2023-06-24T07:53:43;97450.80;;;29.18;35.07
72118;BME280;59992;47.490;8.736;2023-06-24T07:56:33;97451.39;;;29.34;35.35
72118;BME280;59992;47.490;8.736;2023-06-24T07:59:24;97449.93;;;29.54;34.94
72118;BME280;59992;47.490;8.736;2023-06-24T08:02:14;97443.75;;;29.69;34.38
72118;BME280;59992;47.490;8.736;2023-06-24T08:05:06;97443.05;;;29.66;33.74
72118;BME280;59992;47.490;8.736;2023-06-24T08:07:58;97439.14;;;29.63;34.28
72118;BME280;59992;47.490;8.736;2023-06-24T08:10:51;97434.89;;;29.63;34.45
72118;BME280;59992;47.490;8.736;2023-06-24T08:13:41;97434.19;;;29.68;34.31
72118;BME280;59992;47.490;8.736;2023-06-24T08:16:31;97434.65;;;29.70;34.28
72118;BME280;59992;47.490;8.736;2023-06-24T08:19:21;97427.77;;;29.56;34.85
72118;BME280;59992;47.490;8.736;2023-06-24T08:22:12;97427.64;;;29.68;34.46
72118;BME280;59992;47.490;8.736;2023-06-24T08:25:02;97425.48;;;29.45;34.52
72118;BME280;59992;47.490;8.736;2023-06-24T08:27:52;97420.26;;;29.37;34.46
72118;BME280;59992;47.490;8.736;2023-06-24T08:30:42;97416.72;;;29.37;34.45
72118;BME280;59992;47.490;8.736;2023-06-24T08:33:32;97411.68;;;29.38;34.49
72118;BME280;59992;47.490;8.736;2023-06-24T08:36:27;97417.66;;;29.26;33.76
72118;BME280;59992;47.490;8.736;2023-06-24T08:39:18;97412.70;;;29.17;34.80
72118;BME280;59992;47.490;8.736;2023-06-24T08:42:08;97405.25;;;29.11;35.47
72118;BME280;59992;47.490;8.736;2023-06-24T08:44:59;97409.80;;;29.31;34.36
72118;BME280;59992;47.490;8.736;2023-06-24T08:47:50;97401.02;;;29.29;34.13
72118;BME280;59992;47.490;8.736;2023-06-24T08:50:46;97400.70;;;29.20;34.09
72118;BME280;59992;47.490;8.736;2023-06-24T08:53:43;97399.42;;;29.32;33.53
72118;BME280;59992;47.490;8.736;2023-06-24T08:56:34;97399.40;;;28.97;32.59
72118;BME280;59992;47.490;8.736;2023-06-24T08:59:27;97398.58;;;28.83;33.02
72118;BME280;59992;47.490;8.736;2023-06-24T09:02:18;97393.76;;;28.76;32.71
72118;BME280;59992;47.490;8.736;2023-06-24T09:05:09;97395.05;;;28.84;32.92
72118;BME280;59992;47.490;8.736;2023-06-24T09:07:59;97397.01;;;28.75;32.17
72118;BME280;59992;47.490;8.736;2023-06-24T09:10:54;97394.80;;;28.85;32.74
72118;BME280;59992;47.490;8.736;2023-06-24T09:13:44;97389.38;;;28.87;32.98
72118;BME280;59992;47.490;8.736;2023-06-24T09:16:37;97389.37;;;28.88;32.31
72118;BME280;59992;47.490;8.736;2023-06-24T09:19:29;97388.91;;;28.92;31.95
72118;BME280;59992;47.490;8.736;2023-06-24T09:22:21;97382.30;;;28.88;32.49
72118;BME280;59992;47.490;8.736;2023-06-24T09:25:17;97379.60;;;28.82;33.03
72118;BME280;59992;47.490;8.736;2023-06-24T09:28:07;97380.92;;;28.74;32.41
72118;BME280;59992;47.490;8.736;2023-06-24T09:31:10;97376.45;;;28.57;32.62
72118;BME280;59992;47.490;8.736;2023-06-24T09:34:01;97368.48;;;28.56;33.28
72118;BME280;59992;47.490;8.736;2023-06-24T09:36:54;97368.66;;;28.40;33.58
72118;BME280;59992;47.490;8.736;2023-06-24T09:39:45;97369.20;;;28.45;33.38
72118;BME280;59992;47.490;8.736;2023-06-24T09:42:35;97355.65;;;28.21;33.63
72118;BME280;59992;47.490;8.736;2023-06-24T09:45:27;97363.76;;;28.05;33.91
72118;BME280;59992;47.490;8.736;2023-06-24T09:48:18;97361.34;;;28.12;34.21
72118;BME280;59992;47.490;8.736;2023-06-24T09:51:08;97361.20;;;27.94;34.50
72118;BME280;59992;47.490;8.736;2023-06-24T09:53:58;97351.84;;;27.90;34.85
72118;BME280;59992;47.490;8.736;2023-06-24T09:56:49;97352.77;;;27.96;34.31
72118;BME280;59992;47.490;8.736;2023-06-24T09:59:41;97346.02;;;27.72;34.47
72118;BME280;59992;47.490;8.736;2023-06-24T10:02:33;97351.96;;;27.52;34.93
72118;BME280;59992;47.490;8.736;2023-06-24T10:05:24;97349.50;;;27.29;34.99
72118;BME280;59992;47.490;8.736;2023-06-24T10:08:15;97352.64;;;26.94;34.95
72118;BME280;59992;47.490;8.736;2023-06-24T10:11:05;97350.94;;;26.66;35.11
72118;BME280;59992;47.490;8.736;2023-06-24T10:13:55;97343.49;;;26.31;35.44
72118;BME280;59992;47.490;8.736;2023-06-24T10:16:45;97336.77;;;26.12;36.03
72118;BME280;59992;47.490;8.736;2023-06-24T10:19:42;97339.54;;;25.85;36.49
72118;BME280;59992;47.490;8.736;2023-06-24T10:22:34;97338.05;;;25.76;37.00
72118;BME280;59992;47.490;8.736;2023-06-24T10:25:27;97335.69;;;25.62;36.61
72118;BME280;59992;47.490;8.736;2023-06-24T10:28:25;97336.01;;;25.62;36.53
72118;BME280;59992;47.490;8.736;2023-06-24T10:31:16;97334.48;;;25.57;37.06
72118;BME280;59992;47.490;8.736;2023-06-24T10:34:22;97330.46;;;25.56;36.53
72118;BME280;59992;47.490;8.736;2023-06-24T10:37:14;97327.34;;;25.45;36.04
72118;BME280;59992;47.490;8.736;2023-06-24T10:40:09;97319.84;;;25.42;36.30
72118;BME280;59992;47.490;8.736;2023-06-24T10:43:00;97323.09;;;25.37;35.19
72118;BME280;59992;47.490;8.736;2023-06-24T10:45:51;97328.13;;;25.28;34.43
72118;BME280;59992;47.490;8.736;2023-06-24T10:48:42;97320.18;;;25.15;35.52
72118;BME280;59992;47.490;8.736;2023-06-24T10:51:32;97311.42;;;25.17;36.55
72118;BME280;59992;47.490;8.736;2023-06-24T10:54:22;97308.73;;;25.24;36.25
72118;BME280;59992;47.490;8.736;2023-06-24T10:57:13;97308.88;;;25.21;35.11
72118;BME280;59992;47.490;8.736;2023-06-24T11:00:05;97305.04;;;25.21;35.34
72118;BME280;59992;47.490;8.736;2023-06-24T11:02:55;97301.81;;;25.17;35.49
72118;BME280;59992;47.490;8.736;2023-06-24T11:05:46;97298.52;;;25.07;36.09
72118;BME280;59992;47.490;8.736;2023-06-24T11:08:45;97289.70;;;25.01;36.30
72118;BME280;59992;47.490;8.736;2023-06-24T11:11:35;97284.97;;;24.96;36.98
72118;BME280;59992;47.490;8.736;2023-06-24T11:14:27;97278.95;;;24.93;36.94
72118;BME280;59992;47.490;8.736;2023-06-24T11:17:19;97275.91;;;24.89;36.87
72118;BME280;59992;47.490;8.736;2023-06-24T11:20:11;97280.06;;;24.83;35.98
72118;BME280;59992;47.490;8.736;2023-06-24T11:23:01;97271.17;;;24.80;36.35
72118;BME280;59992;47.490;8.736;2023-06-24T11:25:51;97272.82;;;24.84;37.26
72118;BME280;59992;47.490;8.736;2023-06-24T11:28:42;97257.42;;;24.80;37.29
72118;BME280;59992;47.490;8.736;2023-06-24T11:31:32;97252.73;;;24.87;37.61
72118;BME280;59992;47.490;8.736;2023-06-24T11:34:23;97260.48;;;24.82;37.25
72118;BME280;59992;47.490;8.736;2023-06-24T11:37:15;97249.98;;;24.83;37.25
72118;BME280;59992;47.490;8.736;2023-06-24T11:40:08;97254.01;;;24.88;37.97
72118;BME280;59992;47.490;8.736;2023-06-24T11:42:59;97252.30;;;24.95;37.64
72118;BME280;59992;47.490;8.736;2023-06-24T11:45:50;97252.27;;;24.94;37.86
72118;BME280;59992;47.490;8.736;2023-06-24T11:48:41;97245.98;;;24.92;37.68
72118;BME280;59992;47.490;8.736;2023-06-24T11:51:31;97250.71;;;24.91;37.58
72118;BME280;59992;47.490;8.736;2023-06-24T11:54:22;97245.40;;;24.88;37.50
72118;BME280;59992;47.490;8.736;2023-06-24T11:57:13;97248.71;;;24.84;38.09
72118;BME280;59992;47.490;8.736;2023-06-24T12:00:04;97252.11;;;24.82;37.45
72118;BME280;59992;47.490;8.736;2023-06-24T12:03:03;97243.84;;;24.77;38.14
72118;BME280;59992;47.490;8.736;2023-06-24T12:05:53;97234.48;;;24.81;38.23
72118;BME280;59992;47.490;8.736;2023-06-24T12:08:43;97235.82;;;24.83;38.75
72118;BME280;59992;47.490;8.736;2023-06-24T12:11:34;97233.48;;;24.87;38.05
72118;BME280;59992;47.490;8.736;2023-06-24T12:14:24;97232.48;;;24.85;37.57
72118;BME280;59992;47.490;8.736;2023-06-24T12:17:14;97221.55;;;24.85;37.74
72118;BME280;59992;47.490;8.736;2023-06-24T12:20:06;97218.16;;;24.82;38.34
72118;BME280;59992;47.490;8.736;2023-06-24T12:22:57;97219.55;;;24.87;37.95
72118;BME280;59992;47.490;8.736;2023-06-24T12:25:48;97217.86;;;24.89;37.66
72118;BME280;59992;47.490;8.736;2023-06-24T12:28:38;97219.39;;;24.89;38.20
72118;BME280;59992;47.490;8.736;2023-06-24T12:31:28;97212.92;;;24.94;37.61
72118;BME280;59992;47.490;8.736;2023-06-24T12:34:18;97211.30;;;24.97;38.15
72118;BME280;59992;47.490;8.736;2023-06-24T12:37:09;97207.04;;;25.02;38.00
72118;BME280;59992;47.490;8.736;2023-06-24T12:39:59;97204.19;;;25.04;37.61
72118;BME280;59992;47.490;8.736;2023-06-24T12:42:49;97205.02;;;25.07;37.33
72118;BME280;59992;47.490;8.736;2023-06-24T12:45:42;97204.37;;;25.05;37.75
72118;BME280;59992;47.490;8.736;2023-06-24T12:48:32;97201.52;;;25.02;37.50
72118;BME280;59992;47.490;8.736;2023-06-24T12:51:23;97195.58;;;25.04;37.62
72118;BME280;59992;47.490;8.736;2023-06-24T12:54:13;97199.73;;;25.12;37.48
72118;BME280;59992;47.490;8.736;2023-06-24T12:57:04;97194.64;;;25.20;37.41
72118;BME280;59992;47.490;8.736;2023-06-24T12:59:54;97191.27;;;25.21;36.80
72118;BME280;59992;47.490;8.736;2023-06-24T13:02:45;97188.67;;;25.24;37.08
72118;BME280;59992;47.490;8.736;2023-06-24T13:05:35;97197.09;;;25.21;36.31
72118;BME280;59992;47.490;8.736;2023-06-24T13:08:33;97189.92;;;25.22;36.40
72118;BME280;59992;47.490;8.736;2023-06-24T13:11:27;97193.77;;;25.21;35.97
72118;BME280;59992;47.490;8.736;2023-06-24T13:14:17;97186.97;;;25.22;36.13
72118;BME280;59992;47.490;8.736;2023-06-24T13:17:08;97178.35;;;25.24;36.23
72118;BME280;59992;47.490;8.736;2023-06-24T13:19:58;97176.52;;;25.25;35.93
72118;BME280;59992;47.490;8.736;2023-06-24T13:22:49;97185.45;;;25.25;35.73
72118;BME280;59992;47.490;8.736;2023-06-24T13:25:39;97169.05;;;25.26;35.43
72118;BME280;59992;47.490;8.736;2023-06-24T13:28:29;97167.79;;;25.30;35.61
72118;BME280;59992;47.490;8.736;2023-06-24T13:31:20;97161.00;;;25.32;35.71
72118;BME280;59992;47.490;8.736;2023-06-24T13:34:10;97160.88;;;25.30;35.78
72118;BME280;59992;47.490;8.736;2023-06-24T13:37:00;97165.95;;;25.33;35.42
72118;BME280;59992;47.490;8.736;2023-06-24T13:39:50;97164.64;;;25.33;34.74
72118;BME280;59992;47.490;8.736;2023-06-24T13:42:41;97161.02;;;25.37;35.26
72118;BME280;59992;47.490;8.736;2023-06-24T13:45:31;97153.25;;;25.39;34.83
72118;BME280;59992;47.490;8.736;2023-06-24T13:48:21;97152.94;;;25.42;34.82
72118;BME280;59992;47.490;8.736;2023-06-24T13:51:11;97151.74;;;25.42;35.64
72118;BME280;59992;47.490;8.736;2023-06-24T13:54:01;97149.91;;;25.42;35.81
72118;BME280;59992;47.490;8.736;2023-06-24T13:56:52;97147.48;;;25.43;36.35
72118;BME280;59992;47.490;8.736;2023-06-24T13:59:42;97149.19;;;25.42;35.68
72118;BME280;59992;47.490;8.736;2023-06-24T14:02:32;97144.55;;;25.46;35.50
72118;BME280;59992;47.490;8.736;2023-06-24T14:05:23;97146.89;;;25.46;35.00
72118;BME280;59992;47.490;8.736;2023-06-24T14:08:13;97140.58;;;25.45;35.02
72118;BME280;59992;47.490;8.736;2023-06-24T14:11:04;97136.20;;;25.48;35.42
72118;BME280;59992;47.490;8.736;2023-06-24T14:13:54;97133.56;;;25.47;34.98
72118;BME280;59992;47.490;8.736;2023-06-24T14:16:44;97132.59;;;25.51;35.18
72118;BME280;59992;47.490;8.736;2023-06-24T14:19:35;97135.80;;;25.58;35.02
72118;BME280;59992;47.490;8.736;2023-06-24T14:22:25;97133.38;;;25.61;34.43
72118;BME280;59992;47.490;8.736;2023-06-24T14:25:15;97124.48;;;25.58;34.45
72118;BME280;59992;47.490;8.736;2023-06-24T14:28:05;97117.45;;;25.57;34.77
72118;BME280;59992;47.490;8.736;2023-06-24T14:30:56;97122.34;;;25.59;34.92
72118;BME280;59992;47.490;8.736;2023-06-24T14:33:46;97122.99;;;25.62;34.79
72118;BME280;59992;47.490;8.736;2023-06-24T14:36:36;97119.41;;;25.63;34.85
72118;BME280;59992;47.490;8.736;2023-06-24T14:39:26;97104.80;;;25.62;35.27
72118;BME280;59992;47.490;8.736;2023-06-24T14:42:17;97105.39;;;25.66;35.45
72118;BME280;59992;47.490;8.736;2023-06-24T14:45:08;97107.15;;;25.69;35.72
72118;BME280;59992;47.490;8.736;2023-06-24T14:47:58;97113.92;;;25.72;35.69
72118;BME280;59992;47.490;8.736;2023-06-24T14:50:49;97107.52;;;25.71;34.88
72118;BME280;59992;47.490;8.736;2023-06-24T14:53:39;97101.98;;;25.68;35.66
72118;BME280;59992;47.490;8.736;2023-06-24T14:56:30;97101.75;;;25.68;35.63
72118;BME280;59992;47.490;8.736;2023-06-24T14:59:20;97096.17;;;25.68;36.38
72118;BME280;59992;47.490;8.736;2023-06-24T15:02:10;97096.86;;;25.68;35.88
72118;BME280;59992;47.490;8.736;2023-06-24T15:05:00;97096.34;;;25.70;35.00
72118;BME280;59992;47.490;8.736;2023-06-24T15:07:51;97091.92;;;25.69;34.84
72118;BME280;59992;47.490;8.736;2023-06-24T15:10:41;97087.63;;;25.72;35.04